Time;durP1;ratioP1;P1;durP2;ratioP2;P2;SDS_P1;SDS_P2;PMS_P1;PMS_P2;Temp;Humidity;BMP_temperature;BMP_pressure;BME280_temperature;BME280_humidity;BME280_pressure;Samples;Min_cycle;Max_cycle;Signal;HPM_P1;HPM_P2
2021/03/27 00:01:57;;;;;;;9.35;6.35;;;;;;;;;;5034595;28;20421;-89
2021/03/27 00:04:36;;;;;;;6.93;5.50;;;;;;;;;;4995973;28;20792;-89
2021/03/27 00:07:13;;;;;;;6.47;5.85;;;;;;;;;;4996397;28;20496;-89
2021/03/27 00:09:47;;;;;;;9.50;5.25;;;;;;;;;;5006194;28;20804;-89
2021/03/27 00:12:13;;;;;;;7.05;5.07;;;;;;;;;;5018924;28;20401;-88
2021/03/27 00:14:41;;;;;;;5.00;4.43;;;;;;;;;;5052869;28;20388;-89
2021/03/27 00:17:09;;;;;;;6.97;4.88;;;;;;;;;;5035106;28;20508;-88
2021/03/27 00:20:02;;;;;;;4.68;3.80;;;;;;;;;;5027098;28;20478;-90
2021/03/27 00:22:29;;;;;;;4.30;3.90;;;;;;;;;;5009893;28;20841;-89
2021/03/27 00:24:58;;;;;;;5.28;4.35;;;;;;;;;;5010642;28;20397;-89
2021/03/27 00:27:29;;;;;;;5.10;4.18;;;;;;;;;;5011088;28;20988;-88
2021/03/27 00:29:56;;;;;;;4.70;3.72;;;;;;;;;;5014409;28;20890;-89
2021/03/27 00:32:24;;;;;;;6.85;3.20;;;;;;;;;;5015384;28;20435;-89
2021/03/27 00:34:55;;;;;;;5.38;3.20;;;;;;;;;;5013682;28;20397;-89
2021/03/27 00:37:21;;;;;;;3.67;3.22;;;;;;;;;;5003387;28;20427;-89
2021/03/27 00:40:06;;;;;;;3.73;3.20;;;;;;;;;;4998608;28;20475;-89
2021/03/27 00:42:33;;;;;;;3.50;3.00;;;;;;;;;;5032775;28;20519;-90
2021/03/27 00:45:00;;;;;;;4.57;2.67;;;;;;;;;;4994981;28;20463;-89
2021/03/27 00:47:27;;;;;;;3.63;2.67;;;;;;;;;;5011722;28;20459;-88
2021/03/27 00:50:19;;;;;;;2.70;2.50;;;;;;;;;;4998455;28;20393;-89
2021/03/27 00:52:46;;;;;;;2.38;2.17;;;;;;;;;;5030298;28;20912;-89
2021/03/27 00:55:18;;;;;;;2.72;2.45;;;;;;;;;;5022661;28;20417;-90
2021/03/27 00:57:55;;;;;;;3.00;2.70;;;;;;;;;;5014789;28;20494;-89
2021/03/27 01:00:30;;;;;;;3.08;2.63;;;;;;;;;;5031558;28;20398;-89
2021/03/27 01:03:02;;;;;;;3.37;2.60;;;;;;;;;;5009610;28;20448;-89
2021/03/27 01:05:28;;;;;;;3.80;2.40;;;;;;;;;;5016381;28;20499;-90
2021/03/27 01:07:54;;;;;;;2.50;2.30;;;;;;;;;;5017837;28;20400;-89
2021/03/27 01:10:20;;;;;;;3.13;2.38;;;;;;;;;;5020161;28;20399;-89
2021/03/27 01:12:46;;;;;;;3.20;2.20;;;;;;;;;;5043641;28;20489;-89
2021/03/27 01:15:14;;;;;;;2.95;2.13;;;;;;;;;;5015822;28;20510;-90
2021/03/27 01:17:41;;;;;;;2.10;1.90;;;;;;;;;;5016991;28;20480;-89
2021/03/27 01:20:26;;;;;;;2.13;2.03;;;;;;;;;;5017529;28;20412;-89
2021/03/27 01:22:52;;;;;;;1.80;1.80;;;;;;;;;;5030227;28;20405;-89
2021/03/27 01:25:25;;;;;;;2.53;1.95;;;;;;;;;;4997831;28;20401;-89
2021/03/27 01:27:53;;;;;;;3.83;2.17;;;;;;;;;;4998180;28;20399;-89
2021/03/27 01:30:39;;;;;;;2.13;2.03;;;;;;;;;;4997972;28;20446;-89
2021/03/27 01:33:24;;;;;;;2.22;2.13;;;;;;;;;;5014214;28;20427;-89
2021/03/27 01:35:52;;;;;;;2.95;2.03;;;;;;;;;;5015474;28;20415;-89
2021/03/27 01:38:20;;;;;;;2.35;2.15;;;;;;;;;;5031768;28;20395;-90
2021/03/27 01:40:56;;;;;;;2.40;2.00;;;;;;;;;;4997674;28;20412;-89
2021/03/27 01:43:24;;;;;;;3.45;2.53;;;;;;;;;;5027531;28;20410;-89
2021/03/27 01:45:56;;;;;;;3.00;2.42;;;;;;;;;;5007182;28;20398;-89
2021/03/27 01:48:26;;;;;;;3.80;2.20;;;;;;;;;;5030109;28;20439;-90
2021/03/27 01:50:54;;;;;;;4.43;2.53;;;;;;;;;;5014167;28;20391;-89
2021/03/27 01:53:20;;;;;;;3.63;2.35;;;;;;;;;;5014031;28;20454;-89
2021/03/27 01:55:57;;;;;;;2.88;2.47;;;;;;;;;;5019823;28;20976;-89
2021/03/27 01:58:25;;;;;;;2.83;2.55;;;;;;;;;;5027334;28;20916;-90
2021/03/27 02:00:55;;;;;;;3.55;2.65;;;;;;;;;;5030007;28;20387;-89
2021/03/27 02:03:25;;;;;;;5.53;2.70;;;;;;;;;;5014004;28;20968;-89
2021/03/27 02:05:51;;;;;;;2.58;2.40;;;;;;;;;;4996924;28;20407;-89
2021/03/27 02:08:20;;;;;;;2.80;2.60;;;;;;;;;;5013894;28;20786;-88
2021/03/27 02:10:52;;;;;;;2.75;2.55;;;;;;;;;;5013894;28;20395;-89
2021/03/27 02:13:27;;;;;;;3.92;3.15;;;;;;;;;;5013192;28;20411;-89
2021/03/27 02:16:02;;;;;;;3.97;3.53;;;;;;;;;;5026186;28;20416;-89
2021/03/27 02:18:28;;;;;;;3.47;3.28;;;;;;;;;;5009951;28;20777;-89
2021/03/27 02:21:12;;;;;;;3.05;2.72;;;;;;;;;;5011698;28;20479;-89
2021/03/27 02:24:00;;;;;;;2.92;2.83;;;;;;;;;;4996310;28;21273;-88
2021/03/27 02:26:38;;;;;;;3.58;3.08;;;;;;;;;;5013198;28;20453;-89
2021/03/27 02:29:27;;;;;;;4.35;3.00;;;;;;;;;;5031303;28;20953;-89
2021/03/27 02:31:54;;;;;;;5.35;3.65;;;;;;;;;;5031297;28;20478;-90
2021/03/27 02:34:23;;;;;;;4.25;3.83;;;;;;;;;;4994336;28;20963;-89
2021/03/27 02:37:02;;;;;;;5.53;4.65;;;;;;;;;;5037887;28;20547;-89
2021/03/27 02:39:30;;;;;;;3.65;3.38;;;;;;;;;;5033205;28;20931;-89
2021/03/27 02:42:02;;;;;;;4.38;4.03;;;;;;;;;;5026659;28;20422;-88
2021/03/27 02:44:35;;;;;;;3.90;3.10;;;;;;;;;;5003259;28;20395;-90
2021/03/27 02:47:24;;;;;;;4.40;3.15;;;;;;;;;;4997119;28;20399;-89
2021/03/27 02:50:09;;;;;;;3.25;3.00;;;;;;;;;;4975906;28;20395;-88
2021/03/27 02:52:37;;;;;;;3.72;2.60;;;;;;;;;;5016791;28;20778;-89
2021/03/27 02:55:09;;;;;;;4.85;2.55;;;;;;;;;;5005408;28;20403;-88
2021/03/27 02:57:49;;;;;;;2.67;2.07;;;;;;;;;;5016667;28;20436;-88
2021/03/27 03:00:24;;;;;;;2.20;2.00;;;;;;;;;;5012366;28;20902;-89
2021/03/27 03:02:50;;;;;;;2.63;1.70;;;;;;;;;;5000728;28;20407;-88
2021/03/27 03:05:20;;;;;;;1.60;1.50;;;;;;;;;;5016868;28;20385;-88
2021/03/27 03:07:46;;;;;;;1.10;1.00;;;;;;;;;;5000754;28;20441;-89
2021/03/27 03:10:21;;;;;;;1.60;0.77;;;;;;;;;;5011074;28;20404;-88
2021/03/27 03:12:52;;;;;;;0.70;0.70;;;;;;;;;;5010286;28;20414;-89
2021/03/27 03:15:28;;;;;;;2.17;0.52;;;;;;;;;;5002508;28;20403;-90
2021/03/27 03:17:56;;;;;;;0.82;0.50;;;;;;;;;;5004919;28;20514;-88
2021/03/27 03:20:29;;;;;;;2.50;0.45;;;;;;;;;;4990945;28;20427;-89
2021/03/27 03:23:06;;;;;;;0.73;0.50;;;;;;;;;;4998186;28;20463;-86
2021/03/27 03:25:32;;;;;;;0.70;0.40;;;;;;;;;;5022684;28;20434;-89
2021/03/27 03:28:05;;;;;;;0.90;0.60;;;;;;;;;;5013139;28;20911;-87
2021/03/27 03:30:34;;;;;;;2.10;0.60;;;;;;;;;;4998906;28;20401;-86
2021/03/27 03:33:22;;;;;;;0.45;0.45;;;;;;;;;;4993004;28;20461;-86
2021/03/27 03:35:48;;;;;;;1.43;0.73;;;;;;;;;;5010697;28;20424;-86
2021/03/27 03:38:33;;;;;;;0.63;0.60;;;;;;;;;;5027615;28;20407;-87
2021/03/27 03:41:16;;;;;;;0.60;0.50;;;;;;;;;;5001881;28;20407;-87
2021/03/27 03:44:01;;;;;;;0.60;0.60;;;;;;;;;;5004846;28;20486;-89
2021/03/27 03:46:48;;;;;;;1.25;0.60;;;;;;;;;;5010393;28;20420;-88
2021/03/27 03:49:33;;;;;;;1.45;0.90;;;;;;;;;;4990106;28;20414;-89
2021/03/27 03:52:11;;;;;;;0.50;0.40;;;;;;;;;;5031021;28;20481;-90
2021/03/27 03:54:56;;;;;;;0.70;0.50;;;;;;;;;;5016031;28;20398;-90
2021/03/27 03:57:22;;;;;;;0.95;0.50;;;;;;;;;;4990767;28;20497;-89
2021/03/27 03:59:48;;;;;;;1.90;0.52;;;;;;;;;;5039361;28;20941;-89
2021/03/27 04:02:22;;;;;;;0.70;0.35;;;;;;;;;;5015135;28;20403;-90
2021/03/27 04:04:49;;;;;;;0.38;0.38;;;;;;;;;;5013483;28;20494;-89
2021/03/27 04:07:20;;;;;;;0.50;0.50;;;;;;;;;;5023851;28;20418;-89
2021/03/27 04:09:54;;;;;;;0.30;0.30;;;;;;;;;;4994091;28;20440;-90
2021/03/27 04:12:20;;;;;;;0.37;0.37;;;;;;;;;;4978823;28;20587;-90
2021/03/27 04:14:48;;;;;;;0.40;0.40;;;;;;;;;;5012209;28;20411;-89
2021/03/27 04:17:20;;;;;;;0.40;0.40;;;;;;;;;;5012477;28;20434;-89
2021/03/27 04:19:47;;;;;;;0.30;0.30;;;;;;;;;;4995488;28;20409;-89
2021/03/27 04:22:15;;;;;;;1.00;0.70;;;;;;;;;;4996494;28;20438;-89
2021/03/27 04:24:59;;;;;;;0.38;0.38;;;;;;;;;;4999358;28;20392;-89
2021/03/27 04:27:25;;;;;;;0.20;0.20;;;;;;;;;;5033015;28;20402;-89
2021/03/27 04:29:59;;;;;;;0.30;0.20;;;;;;;;;;5012917;28;21888;-89
2021/03/27 04:32:28;;;;;;;0.30;0.30;;;;;;;;;;5004923;28;20426;-89
2021/03/27 04:35:03;;;;;;;0.60;0.60;;;;;;;;;;4998802;28;20392;-89
2021/03/27 04:37:41;;;;;;;0.20;0.20;;;;;;;;;;5015241;28;20414;-89
2021/03/27 04:40:28;;;;;;;0.50;0.20;;;;;;;;;;4980686;28;20846;-89
2021/03/27 04:43:02;;;;;;;0.20;0.20;;;;;;;;;;4994795;28;20436;-90
2021/03/27 04:45:29;;;;;;;0.28;0.28;;;;;;;;;;5011786;28;20490;-90
2021/03/27 04:47:59;;;;;;;0.63;0.25;;;;;;;;;;5020652;28;20758;-89
2021/03/27 04:50:29;;;;;;;1.13;0.38;;;;;;;;;;5012241;28;20446;-90
2021/03/27 04:53:02;;;;;;;0.25;0.25;;;;;;;;;;4998809;28;20467;-89
2021/03/27 04:55:34;;;;;;;0.50;0.30;;;;;;;;;;5027719;28;20443;-90
2021/03/27 04:58:03;;;;;;;0.50;0.20;;;;;;;;;;4994447;28;20423;-89
2021/03/27 05:00:35;;;;;;;0.30;0.30;;;;;;;;;;5031466;28;20403;-89
2021/03/27 05:03:04;;;;;;;0.60;0.43;;;;;;;;;;5014779;28;20395;-89
2021/03/27 05:05:39;;;;;;;0.70;0.70;;;;;;;;;;5014180;28;20958;-89
2021/03/27 05:08:13;;;;;;;1.33;1.33;;;;;;;;;;5014632;28;20484;-88
2021/03/27 05:10:40;;;;;;;1.05;1.05;;;;;;;;;;4992974;28;20398;-89
2021/03/27 05:13:25;;;;;;;1.27;1.17;;;;;;;;;;5004716;28;20412;-89
2021/03/27 05:16:17;;;;;;;0.87;0.87;;;;;;;;;;5027390;28;20569;-90
2021/03/27 05:18:50;;;;;;;1.30;0.73;;;;;;;;;;5008947;28;20407;-89
2021/03/27 05:21:16;;;;;;;0.80;0.50;;;;;;;;;;4994162;28;20431;-89
2021/03/27 05:24:09;;;;;;;2.50;0.88;;;;;;;;;;5033444;28;20402;-90
2021/03/27 05:26:46;;;;;;;2.20;0.90;;;;;;;;;;4978568;28;20406;-89
2021/03/27 05:29:17;;;;;;;1.87;0.53;;;;;;;;;;5012251;28;20482;-89
2021/03/27 05:31:56;;;;;;;4.20;1.13;;;;;;;;;;5005829;28;20917;-91
2021/03/27 05:34:24;;;;;;;1.58;0.55;;;;;;;;;;5028455;28;20409;-90
2021/03/27 05:36:56;;;;;;;3.63;0.80;;;;;;;;;;5016900;28;20440;-89
2021/03/27 05:39:36;;;;;;;3.00;0.90;;;;;;;;;;5027975;28;20891;-89
2021/03/27 05:42:28;;;;;;;0.50;0.40;;;;;;;;;;5027545;28;20411;-90
2021/03/27 05:44:54;;;;;;;3.10;1.00;;;;;;;;;;5020105;28;20479;-90
2021/03/27 05:47:39;;;;;;;1.88;0.85;;;;;;;;;;5019887;28;20405;-89
2021/03/27 05:50:05;;;;;;;1.40;0.70;;;;;;;;;;5038493;28;20411;-89
2021/03/27 05:52:31;;;;;;;2.10;0.90;;;;;;;;;;5013703;28;20399;-89
2021/03/27 05:55:03;;;;;;;1.98;0.82;;;;;;;;;;4999327;28;20416;-89
2021/03/27 05:57:41;;;;;;;2.97;0.98;;;;;;;;;;5028373;28;20423;-89
2021/03/27 06:00:19;;;;;;;3.00;0.80;;;;;;;;;;5014111;28;20786;-89
2021/03/27 06:02:51;;;;;;;6.05;1.05;;;;;;;;;;4993156;28;20419;-90
2021/03/27 06:05:22;;;;;;;2.40;0.75;;;;;;;;;;5014110;28;20387;-89
2021/03/27 06:08:03;;;;;;;2.65;0.95;;;;;;;;;;5010749;28;20395;-90
2021/03/27 06:10:35;;;;;;;3.72;0.90;;;;;;;;;;5039064;28;20453;-90
2021/03/27 06:13:04;;;;;;;2.17;0.70;;;;;;;;;;5011394;28;20453;-90
2021/03/27 06:15:57;;;;;;;3.13;0.85;;;;;;;;;;5009319;28;20944;-89
2021/03/27 06:18:35;;;;;;;1.80;0.70;;;;;;;;;;5018268;28;20436;-90
2021/03/27 06:21:07;;;;;;;1.65;0.63;;;;;;;;;;5027605;28;20431;-90
2021/03/27 06:23:33;;;;;;;1.35;0.80;;;;;;;;;;5006989;28;20427;-89
2021/03/27 06:26:16;;;;;;;4.40;1.27;;;;;;;;;;5016185;28;20758;-89
2021/03/27 06:29:00;;;;;;;3.35;1.00;;;;;;;;;;4997772;28;20821;-90
2021/03/27 06:31:45;;;;;;;1.52;0.77;;;;;;;;;;5019748;28;20432;-90
2021/03/27 06:34:30;;;;;;;5.35;1.20;;;;;;;;;;5008790;28;20433;-90
2021/03/27 06:37:15;;;;;;;2.05;1.00;;;;;;;;;;5017373;28;20458;-89
2021/03/27 06:39:50;;;;;;;3.90;1.35;;;;;;;;;;5010229;28;20763;-89
2021/03/27 06:42:39;;;;;;;2.90;1.60;;;;;;;;;;5020522;28;20403;-89
2021/03/27 06:45:20;;;;;;;5.43;2.58;;;;;;;;;;5021620;28;20954;-90
2021/03/27 06:47:49;;;;;;;3.83;1.58;;;;;;;;;;5019716;28;20447;-90
2021/03/27 06:50:15;;;;;;;3.25;1.10;;;;;;;;;;5015129;28;20414;-88
2021/03/27 06:52:52;;;;;;;3.10;0.90;;;;;;;;;;5019645;28;20467;-91
2021/03/27 06:55:40;;;;;;;3.15;2.63;;;;;;;;;;5015856;28;20412;-90
2021/03/27 06:58:15;;;;;;;2.90;1.95;;;;;;;;;;5014700;28;20427;-89
2021/03/27 07:00:49;;;;;;;5.35;2.33;;;;;;;;;;5030716;28;20389;-90
2021/03/27 07:03:34;;;;;;;1.83;1.20;;;;;;;;;;5018493;28;20475;-90
2021/03/27 07:06:18;;;;;;;1.42;1.10;;;;;;;;;;5031212;28;20442;-89
2021/03/27 07:08:51;;;;;;;5.22;1.15;;;;;;;;;;5030128;28;20402;-90
2021/03/27 07:11:34;;;;;;;2.60;1.60;;;;;;;;;;5002009;28;20924;-89
2021/03/27 07:14:19;;;;;;;3.55;2.70;;;;;;;;;;5005887;28;20406;-89
2021/03/27 07:17:04;;;;;;;2.63;1.40;;;;;;;;;;5033000;28;20507;-88
2021/03/27 07:19:33;;;;;;;3.67;1.83;;;;;;;;;;5025149;28;20430;-89
2021/03/27 07:22:05;;;;;;;3.67;1.38;;;;;;;;;;5023028;28;20901;-89
2021/03/27 07:24:34;;;;;;;2.38;1.17;;;;;;;;;;5014690;28;20888;-90
2021/03/27 07:27:09;;;;;;;4.07;1.48;;;;;;;;;;5030399;28;20410;-88
2021/03/27 07:29:50;;;;;;;2.13;1.83;;;;;;;;;;5032624;28;20430;-89
2021/03/27 07:32:26;;;;;;;4.55;2.30;;;;;;;;;;5020513;28;20426;-88
2021/03/27 07:35:27;;;;;;;3.20;1.30;;;;;;;;;;5025989;28;20399;-89
2021/03/27 07:37:53;;;;;;;4.07;1.85;;;;;;;;;;4928367;29;20430;-90
2021/03/27 07:40:19;;;;;;;3.15;1.10;;;;;;;;;;4999953;28;20446;-90
2021/03/27 07:42:57;;;;;;;3.63;1.37;;;;;;;;;;5030606;28;20871;-89
2021/03/27 07:45:23;;;;;;;3.13;0.75;;;;;;;;;;5028155;28;20414;-88
2021/03/27 07:47:58;;;;;;;2.67;0.95;;;;;;;;;;5030336;28;20403;-88
2021/03/27 07:50:25;;;;;;;4.03;1.40;;;;;;;;;;5015347;28;20811;-89
2021/03/27 07:53:00;;;;;;;4.22;1.00;;;;;;;;;;5014348;28;20402;-88
2021/03/27 07:55:32;;;;;;;2.65;0.80;;;;;;;;;;5001262;28;20423;-89
2021/03/27 07:58:21;;;;;;;4.20;1.10;;;;;;;;;;5019682;28;20419;-88
2021/03/27 08:01:06;;;;;;;3.55;1.00;;;;;;;;;;5009609;28;20492;-86
2021/03/27 08:03:35;;;;;;;1.90;1.07;;;;;;;;;;5028465;28;20401;-86
2021/03/27 08:06:20;;;;;;;3.20;1.00;;;;;;;;;;5014049;28;20426;-87
2021/03/27 08:08:59;;;;;;;2.50;0.90;;;;;;;;;;5030663;28;22094;-86
2021/03/27 08:11:34;;;;;;;2.45;0.90;;;;;;;;;;5016078;28;20403;-86
2021/03/27 08:14:20;;;;;;;3.53;0.80;;;;;;;;;;5022242;28;20514;-89
2021/03/27 08:17:04;;;;;;;2.17;0.77;;;;;;;;;;4999261;28;21065;-86
2021/03/27 08:19:45;;;;;;;3.08;0.85;;;;;;;;;;5018488;28;20446;-86
2021/03/27 08:22:29;;;;;;;2.90;0.70;;;;;;;;;;5031213;28;20415;-86
2021/03/27 08:24:56;;;;;;;3.72;1.00;;;;;;;;;;5020304;28;20403;-88
2021/03/27 08:27:40;;;;;;;2.88;1.00;;;;;;;;;;5005949;28;20766;-86
2021/03/27 08:30:25;;;;;;;4.57;1.10;;;;;;;;;;5022848;28;20756;-87
2021/03/27 08:33:06;;;;;;;1.65;0.90;;;;;;;;;;5028452;28;20436;-87
2021/03/27 08:35:51;;;;;;;2.65;0.80;;;;;;;;;;5019264;28;20411;-87
2021/03/27 08:38:35;;;;;;;2.53;0.60;;;;;;;;;;5013414;28;20423;-86
2021/03/27 08:41:11;;;;;;;2.60;0.70;;;;;;;;;;5025784;28;20469;-90
2021/03/27 08:43:37;;;;;;;1.63;0.80;;;;;;;;;;4997671;28;20409;-87
2021/03/27 08:46:23;;;;;;;4.72;0.90;;;;;;;;;;5014542;28;20491;-92
2021/03/27 08:49:01;;;;;;;1.83;1.05;;;;;;;;;;5013982;28;20838;-88
2021/03/27 08:51:41;;;;;;;2.38;0.80;;;;;;;;;;4995178;28;20459;-86
2021/03/27 08:54:07;;;;;;;4.35;1.70;;;;;;;;;;5025292;28;20414;-87
2021/03/27 08:56:42;;;;;;;2.80;1.00;;;;;;;;;;5030829;28;20513;-85
2021/03/27 08:59:08;;;;;;;3.03;1.55;;;;;;;;;;5029823;28;20407;-87
2021/03/27 09:01:52;;;;;;;5.40;1.80;;;;;;;;;;5031260;28;20515;-85
2021/03/27 09:04:48;;;;;;;3.38;2.17;;;;;;;;;;5027119;28;20470;-92
2021/03/27 09:07:14;;;;;;;5.60;2.30;;;;;;;;;;5015281;28;20815;-92
2021/03/27 09:09:54;;;;;;;3.78;1.10;;;;;;;;;;5025185;28;20424;-89
2021/03/27 09:12:25;;;;;;;5.10;1.93;;;;;;;;;;5045671;28;20392;-88
2021/03/27 09:15:10;;;;;;;4.00;1.05;;;;;;;;;;4990563;28;20824;-88
2021/03/27 09:17:54;;;;;;;3.95;0.70;;;;;;;;;;5011692;28;20446;-88
2021/03/27 09:20:39;;;;;;;5.43;2.53;;;;;;;;;;5004112;28;20408;-88
2021/03/27 09:23:23;;;;;;;9.30;3.20;;;;;;;;;;5043257;28;21079;-87
2021/03/27 09:26:07;;;;;;;5.88;2.53;;;;;;;;;;4997417;28;20473;-92
2021/03/27 09:28:47;;;;;;;5.07;2.65;;;;;;;;;;5013076;28;20958;-87
2021/03/27 09:31:32;;;;;;;6.20;2.67;;;;;;;;;;5012460;28;20486;-87
2021/03/27 09:34:17;;;;;;;4.43;2.08;;;;;;;;;;5015001;28;20423;-88
2021/03/27 09:36:47;;;;;;;5.85;1.65;;;;;;;;;;5031895;28;20441;-87
2021/03/27 09:39:13;;;;;;;4.95;2.30;;;;;;;;;;5027875;28;20391;-89
2021/03/27 09:42:01;;;;;;;3.95;2.05;;;;;;;;;;5031859;28;20437;-89
2021/03/27 09:44:44;;;;;;;1.92;1.00;;;;;;;;;;4997933;28;20403;-89
2021/03/27 09:47:21;;;;;;;2.58;1.05;;;;;;;;;;4997499;28;20469;-88
2021/03/27 09:50:06;;;;;;;1.50;1.20;;;;;;;;;;5030444;28;20391;-89
2021/03/27 09:52:35;;;;;;;2.13;0.85;;;;;;;;;;5014053;28;20403;-89
2021/03/27 09:55:08;;;;;;;2.33;0.80;;;;;;;;;;5031230;28;20491;-89
2021/03/27 09:57:46;;;;;;;3.60;0.75;;;;;;;;;;4996928;28;20508;-89
2021/03/27 10:00:12;;;;;;;2.17;1.20;;;;;;;;;;4981347;28;20400;-88
2021/03/27 10:02:57;;;;;;;1.30;0.90;;;;;;;;;;5031760;28;20888;-88
2021/03/27 10:05:33;;;;;;;3.10;0.90;;;;;;;;;;5031336;28;20452;-89
2021/03/27 10:08:03;;;;;;;3.83;0.57;;;;;;;;;;5010928;28;20399;-88
2021/03/27 10:10:36;;;;;;;3.15;0.90;;;;;;;;;;4994030;28;20404;-88
2021/03/27 10:13:17;;;;;;;2.60;0.80;;;;;;;;;;5000460;28;20749;-88
2021/03/27 10:15:53;;;;;;;1.38;0.70;;;;;;;;;;5004589;28;20430;-85
2021/03/27 10:18:41;;;;;;;3.83;0.93;;;;;;;;;;5033780;28;20871;-87
2021/03/27 10:21:10;;;;;;;1.30;0.77;;;;;;;;;;5001555;28;20402;-88
2021/03/27 10:23:39;;;;;;;1.58;0.75;;;;;;;;;;5016472;28;20402;-86
2021/03/27 10:26:09;;;;;;;1.70;0.90;;;;;;;;;;5016890;28;20398;-86
2021/03/27 10:28:37;;;;;;;1.88;0.80;;;;;;;;;;5016747;28;20452;-87
2021/03/27 10:31:02;;;;;;;2.60;1.10;;;;;;;;;;5015836;28;20426;-86
2021/03/27 10:33:28;;;;;;;2.60;0.70;;;;;;;;;;5022478;28;20486;-87
2021/03/27 10:35:58;;;;;;;3.75;1.13;;;;;;;;;;5010665;28;20408;-86
2021/03/27 10:38:30;;;;;;;3.80;1.05;;;;;;;;;;5016306;28;20438;-89
2021/03/27 10:40:57;;;;;;;2.95;1.13;;;;;;;;;;5021515;28;20872;-87
2021/03/27 10:43:43;;;;;;;3.88;1.30;;;;;;;;;;4992176;28;20403;-88
2021/03/27 10:46:15;;;;;;;3.65;0.98;;;;;;;;;;5029643;28;20461;-88
2021/03/27 10:48:43;;;;;;;2.50;0.70;;;;;;;;;;5024459;28;20397;-88
2021/03/27 10:51:09;;;;;;;3.08;1.00;;;;;;;;;;5015080;28;20423;-88
2021/03/27 10:53:57;;;;;;;2.75;0.90;;;;;;;;;;5029873;28;20447;-88
2021/03/27 10:56:30;;;;;;;2.35;0.80;;;;;;;;;;5017395;28;20459;-88
2021/03/27 10:58:57;;;;;;;3.00;0.88;;;;;;;;;;5015345;28;20958;-88
2021/03/27 11:01:42;;;;;;;2.47;1.00;;;;;;;;;;5012347;28;20917;-90
2021/03/27 11:04:08;;;;;;;4.05;0.90;;;;;;;;;;5025783;28;20780;-89
2021/03/27 11:06:57;;;;;;;6.30;1.60;;;;;;;;;;5026170;28;20392;-89
2021/03/27 11:09:42;;;;;;;2.92;1.13;;;;;;;;;;5018130;28;20418;-89
2021/03/27 11:12:08;;;;;;;2.70;0.85;;;;;;;;;;5029211;28;20926;-89
2021/03/27 11:14:39;;;;;;;1.70;0.70;;;;;;;;;;5015786;28;20411;-89
2021/03/27 11:17:23;;;;;;;3.75;1.10;;;;;;;;;;5000044;28;20562;-89
2021/03/27 11:19:55;;;;;;;2.38;1.00;;;;;;;;;;5013195;28;20421;-88
2021/03/27 11:22:40;;;;;;;2.87;1.10;;;;;;;;;;5002467;28;20415;-89
2021/03/27 11:25:25;;;;;;;2.70;0.68;;;;;;;;;;5011864;28;20412;-88
2021/03/27 11:27:54;;;;;;;2.17;0.90;;;;;;;;;;5010655;28;20403;-87
2021/03/27 11:30:22;;;;;;;1.98;0.73;;;;;;;;;;5014704;28;20445;-88
2021/03/27 11:32:51;;;;;;;5.38;0.98;;;;;;;;;;5014650;28;20395;-87
2021/03/27 11:35:21;;;;;;;4.65;1.20;;;;;;;;;;5013709;28;20416;-88
2021/03/27 11:37:51;;;;;;;4.68;1.27;;;;;;;;;;5021943;28;20423;-86
2021/03/27 11:40:17;;;;;;;4.32;0.90;;;;;;;;;;5018938;28;20405;-88
2021/03/27 11:43:02;;;;;;;4.63;1.08;;;;;;;;;;5016303;28;20419;-87
2021/03/27 11:45:48;;;;;;;3.88;1.42;;;;;;;;;;5032982;28;20468;-88
2021/03/27 11:48:14;;;;;;;2.53;0.80;;;;;;;;;;5015669;28;20406;-86
2021/03/27 11:51:06;;;;;;;2.95;1.10;;;;;;;;;;5016228;28;20762;-87
2021/03/27 11:53:51;;;;;;;2.17;0.95;;;;;;;;;;4998249;28;20495;-88
2021/03/27 11:56:20;;;;;;;3.10;1.52;;;;;;;;;;5022580;28;20423;-87
2021/03/27 12:01:32;;;;;;;2.25;1.20;;;;;;;;;;5031569;28;20434;-88
2021/03/27 12:04:16;;;;;;;6.65;1.60;;;;;;;;;;4995860;28;20899;-88
2021/03/27 12:07:01;;;;;;;4.13;1.42;;;;;;;;;;5013245;28;20424;-87
2021/03/27 12:09:35;;;;;;;4.95;1.45;;;;;;;;;;5026135;28;20389;-89
2021/03/27 12:12:03;;;;;;;3.75;1.45;;;;;;;;;;4993411;28;20411;-88
2021/03/27 12:14:47;;;;;;;2.07;1.20;;;;;;;;;;4997338;28;20462;-87
2021/03/27 12:17:18;;;;;;;2.10;1.10;;;;;;;;;;5005761;28;20566;-87
2021/03/27 12:19:56;;;;;;;7.20;3.42;;;;;;;;;;5014897;28;20399;-88
2021/03/27 12:22:26;;;;;;;9.90;5.15;;;;;;;;;;5025514;28;20507;-87
2021/03/27 12:24:52;;;;;;;6.23;2.60;;;;;;;;;;5029792;28;20391;-88
2021/03/27 12:27:24;;;;;;;11.13;4.37;;;;;;;;;;5012971;28;20561;-87
2021/03/27 12:30:00;;;;;;;7.38;2.92;;;;;;;;;;5011961;28;20403;-87
2021/03/27 12:32:35;;;;;;;4.28;1.60;;;;;;;;;;4997554;28;20747;-89
2021/03/27 12:35:07;;;;;;;3.22;1.63;;;;;;;;;;5014773;28;20521;-88
2021/03/27 12:37:55;;;;;;;12.10;5.00;;;;;;;;;;5014482;28;20430;-89
2021/03/27 12:40:21;;;;;;;3.58;1.40;;;;;;;;;;4997773;28;20441;-88
2021/03/27 12:42:54;;;;;;;4.70;1.50;;;;;;;;;;5033158;28;20390;-88
2021/03/27 12:45:25;;;;;;;4.00;1.20;;;;;;;;;;5035588;28;20915;-89
2021/03/27 12:47:55;;;;;;;3.05;1.10;;;;;;;;;;5002155;28;20739;-89
2021/03/27 12:50:29;;;;;;;3.30;1.33;;;;;;;;;;5015361;28;20453;-88
2021/03/27 12:53:06;;;;;;;5.80;1.47;;;;;;;;;;4998602;28;20426;-88
2021/03/27 12:55:32;;;;;;;7.30;1.80;;;;;;;;;;4998572;28;20526;-89
2021/03/27 12:57:59;;;;;;;4.97;1.17;;;;;;;;;;5031160;28;20499;-88
2021/03/27 13:00:43;;;;;;;3.33;1.05;;;;;;;;;;5015473;28;20400;-87
2021/03/27 13:03:15;;;;;;;7.63;3.83;;;;;;;;;;5013596;28;20415;-88
2021/03/27 13:05:48;;;;;;;3.13;1.08;;;;;;;;;;5027995;28;20388;-87
2021/03/27 13:08:16;;;;;;;4.32;1.20;;;;;;;;;;5014695;28;20422;-87
2021/03/27 13:10:54;;;;;;;4.45;1.50;;;;;;;;;;5003640;28;20396;-88
2021/03/27 13:13:39;;;;;;;4.35;1.35;;;;;;;;;;5026150;28;20407;-88
2021/03/27 13:16:14;;;;;;;28.58;12.27;;;;;;;;;;4994869;28;20455;-88
2021/03/27 13:18:43;;;;;;;5.40;1.52;;;;;;;;;;5000718;28;20420;-88
2021/03/27 13:21:09;;;;;;;5.43;1.30;;;;;;;;;;5030789;28;20750;-88
2021/03/27 13:23:37;;;;;;;4.00;1.42;;;;;;;;;;5018136;28;20470;-88
2021/03/27 13:26:08;;;;;;;4.15;1.60;;;;;;;;;;5029663;28;20915;-88
2021/03/27 13:28:43;;;;;;;3.58;1.30;;;;;;;;;;5018021;28;20408;-88
2021/03/27 13:31:09;;;;;;;3.22;1.73;;;;;;;;;;5012794;28;20499;-88
2021/03/27 13:33:54;;;;;;;3.65;1.75;;;;;;;;;;5019733;28;20490;-88
2021/03/27 13:36:36;;;;;;;3.45;1.15;;;;;;;;;;5030697;28;20766;-88
2021/03/27 13:39:04;;;;;;;2.70;1.50;;;;;;;;;;5016764;28;20494;-88
2021/03/27 13:41:33;;;;;;;4.40;1.45;;;;;;;;;;4997164;28;20806;-88
2021/03/27 13:44:18;;;;;;;3.55;1.38;;;;;;;;;;5013539;28;20439;-86
2021/03/27 13:46:47;;;;;;;8.23;2.42;;;;;;;;;;5038476;28;20460;-89
2021/03/27 13:49:15;;;;;;;11.68;2.00;;;;;;;;;;5014927;28;20925;-88
2021/03/27 13:51:54;;;;;;;7.05;1.98;;;;;;;;;;5018292;28;20399;-86
2021/03/27 13:54:23;;;;;;;13.65;2.10;;;;;;;;;;5033326;28;20402;-86
2021/03/27 13:56:49;;;;;;;7.38;1.85;;;;;;;;;;5031975;28;20468;-87
2021/03/27 13:59:22;;;;;;;4.70;1.42;;;;;;;;;;5013166;28;20407;-88
2021/03/27 14:02:06;;;;;;;18.80;2.20;;;;;;;;;;5021570;28;20510;-88
2021/03/27 14:04:36;;;;;;;5.85;1.52;;;;;;;;;;5030359;28;20464;-87
2021/03/27 14:07:04;;;;;;;5.70;1.63;;;;;;;;;;5030276;28;20795;-87
2021/03/27 14:09:33;;;;;;;4.05;1.30;;;;;;;;;;5015920;28;20490;-88
2021/03/27 14:12:02;;;;;;;6.13;1.30;;;;;;;;;;5012945;28;20399;-88
2021/03/27 14:14:29;;;;;;;28.50;2.65;;;;;;;;;;5013177;28;20786;-88
2021/03/27 14:17:14;;;;;;;5.25;1.30;;;;;;;;;;4996657;28;20485;-86
2021/03/27 14:19:55;;;;;;;3.55;1.33;;;;;;;;;;5017934;28;20425;-88
2021/03/27 14:22:40;;;;;;;4.00;1.67;;;;;;;;;;5010855;28;20409;-87
2021/03/27 14:25:10;;;;;;;2.72;1.27;;;;;;;;;;5019685;28;20406;-87
2021/03/27 14:27:42;;;;;;;5.63;1.70;;;;;;;;;;5013625;28;20403;-87
2021/03/27 14:30:14;;;;;;;4.90;1.60;;;;;;;;;;5030622;28;20426;-86
2021/03/27 14:32:55;;;;;;;4.78;1.17;;;;;;;;;;5013676;28;20763;-87
2021/03/27 14:35:25;;;;;;;4.05;1.45;;;;;;;;;;5029370;28;20395;-87
2021/03/27 14:37:51;;;;;;;4.18;1.20;;;;;;;;;;4996511;28;20416;-88
2021/03/27 14:40:29;;;;;;;2.30;1.10;;;;;;;;;;5031338;28;20393;-89
2021/03/27 14:43:07;;;;;;;6.53;1.58;;;;;;;;;;5012802;28;20478;-89
2021/03/27 14:45:52;;;;;;;3.95;1.30;;;;;;;;;;5013041;28;20387;-90
2021/03/27 14:48:18;;;;;;;3.92;0.93;;;;;;;;;;5022083;28;20839;-89
2021/03/27 14:50:44;;;;;;;3.13;1.40;;;;;;;;;;5030538;28;20446;-89
2021/03/27 14:53:30;;;;;;;4.43;1.40;;;;;;;;;;5031123;28;20426;-90
2021/03/27 14:56:05;;;;;;;4.07;1.50;;;;;;;;;;4997872;28;20460;-89
2021/03/27 14:58:41;;;;;;;3.65;1.20;;;;;;;;;;5017165;28;20398;-89
2021/03/27 15:01:08;;;;;;;3.40;1.23;;;;;;;;;;5018458;28;20407;-89
2021/03/27 15:03:46;;;;;;;4.78;1.60;;;;;;;;;;5013422;28;20395;-89
2021/03/27 15:06:31;;;;;;;5.18;1.65;;;;;;;;;;5017489;28;20403;-89
2021/03/27 15:09:06;;;;;;;4.95;1.40;;;;;;;;;;5034740;28;20640;-88
2021/03/27 15:11:51;;;;;;;2.63;1.10;;;;;;;;;;5034583;28;20394;-91
2021/03/27 15:14:35;;;;;;;3.80;1.45;;;;;;;;;;5033059;28;20403;-88
2021/03/27 15:17:04;;;;;;;4.00;1.25;;;;;;;;;;5031575;28;20427;-88
2021/03/27 15:19:49;;;;;;;5.28;1.50;;;;;;;;;;5033320;28;20410;-88
2021/03/27 15:22:26;;;;;;;3.67;1.15;;;;;;;;;;5049094;28;20407;-88
2021/03/27 15:28:07;;;;;;;5.88;1.40;;;;;;;;;;5029129;28;20924;-89
2021/03/27 15:30:36;;;;;;;5.25;1.70;;;;;;;;;;5019907;28;20398;-88
2021/03/27 15:33:30;;;;;;;4.85;1.40;;;;;;;;;;5036218;28;20484;-88
2021/03/27 15:36:11;;;;;;;5.32;2.25;;;;;;;;;;5016338;28;20403;-88